createdAt,value
2022-11-05T00:00:54.975Z,70.90
2022-11-05T00:03:41.202Z,69.87
2022-11-05T00:06:29.181Z,71.89
2022-11-05T00:09:34.943Z,71.74
2022-11-05T00:12:38.796Z,71.46
2022-11-05T00:15:25.213Z,72.26
2022-11-05T00:17:52.494Z,72.33
2022-11-05T00:20:19.621Z,70.89
2022-11-05T00:23:05.089Z,69.49
2022-11-05T00:25:32.571Z,69.67
2022-11-05T00:28:03.485Z,71.22
2022-11-05T00:30:31.001Z,71.16
2022-11-05T00:33:03.197Z,70.98
2022-11-05T00:35:30.521Z,71.04
2022-11-05T00:37:57.689Z,71.55
2022-11-05T00:40:24.815Z,72.77
2022-11-05T00:43:10.915Z,70.74
2022-11-05T00:45:38.268Z,71.33
2022-11-05T00:48:24.552Z,72.05
2022-11-05T00:50:52.049Z,70.27
2022-11-05T00:53:19.322Z,71.44
2022-11-05T00:55:47.347Z,71.42
2022-11-05T00:58:19.215Z,71.37
2022-11-05T01:01:00.896Z,71.07
2022-11-05T01:03:36.200Z,70.17
2022-11-05T01:06:17.614Z,71.30
2022-11-05T01:08:46.792Z,70.56
2022-11-05T01:11:35.273Z,71.07
2022-11-05T01:14:10.154Z,70.34
2022-11-05T01:16:39.240Z,70.29
2022-11-05T01:19:10.538Z,70.59
2022-11-05T01:21:38.478Z,70.43
2022-11-05T01:24:06.298Z,70.63
2022-11-05T01:26:33.470Z,70.29
2022-11-05T01:29:01.116Z,69.76
2022-11-05T01:31:29.131Z,68.61
2022-11-05T01:33:56.281Z,68.38
2022-11-05T01:36:23.399Z,68.17
2022-11-05T01:38:50.522Z,69.37
2022-11-05T01:41:18.090Z,69.79
2022-11-05T01:44:02.015Z,70.42
2022-11-05T01:46:41.263Z,69.97
2022-11-05T01:49:38.392Z,70.52
2022-11-05T01:52:08.287Z,70.42
2022-11-05T01:54:39.521Z,70.50
2022-11-05T01:57:12.039Z,69.89
2022-11-05T01:59:48.807Z,69.99
2022-11-05T02:02:18.217Z,69.95
2022-11-05T02:05:06.438Z,70.30
2022-11-05T02:07:34.787Z,70.43
2022-11-05T02:10:07.263Z,70.16
2022-11-05T02:12:39.088Z,69.42
2022-11-05T02:15:10.405Z,69.21
2022-11-05T02:18:09.068Z,70.78
2022-11-05T02:20:54.902Z,70.48
2022-11-05T02:24:09.130Z,71.47
2022-11-05T02:27:02.205Z,70.89
2022-11-05T02:30:06.668Z,70.72
2022-11-05T02:33:23.372Z,70.50
2022-11-05T02:36:27.623Z,70.23
2022-11-05T02:39:34.795Z,71.04
2022-11-05T02:42:54.184Z,69.72
2022-11-05T02:46:03.729Z,68.75
2022-11-05T02:49:01.547Z,67.41
2022-11-05T02:51:49.453Z,70.17
2022-11-05T02:54:35.713Z,70.59
2022-11-05T02:57:08.742Z,70.53
2022-11-05T02:59:36.519Z,68.86
2022-11-05T03:02:16.852Z,68.63
2022-11-05T03:04:44.566Z,69.22
2022-11-05T03:07:44.086Z,67.47
2022-11-05T03:10:51.812Z,69.73
2022-11-05T03:13:53.233Z,70.32
2022-11-05T03:16:51.151Z,70.00
2022-11-05T03:19:48.870Z,70.96
2022-11-05T03:22:42.241Z,71.27
2022-11-05T03:25:32.335Z,70.23
2022-11-05T03:28:30.949Z,70.66
2022-11-05T03:31:01.062Z,70.82
2022-11-05T03:33:53.373Z,71.42
2022-11-05T03:36:33.635Z,71.60
2022-11-05T03:39:13.752Z,71.03
2022-11-05T03:41:45.163Z,70.96
2022-11-05T03:44:16.854Z,71.45
2022-11-05T03:46:57.794Z,70.78
2022-11-05T03:50:21.723Z,70.63
2022-11-05T03:53:00.440Z,69.16
2022-11-05T03:55:44.763Z,70.50
2022-11-05T03:58:14.549Z,70.83
2022-11-05T04:00:42.311Z,70.48
2022-11-05T04:03:12.182Z,72.30
2022-11-05T04:05:40.784Z,71.89
2022-11-05T04:08:28.705Z,71.62
2022-11-05T04:11:16.920Z,71.45
2022-11-05T04:13:46.441Z,70.33
2022-11-05T04:16:33.332Z,69.65
2022-11-05T04:19:01.366Z,70.60
2022-11-05T04:21:47.667Z,71.19
2022-11-05T04:24:15.259Z,70.18
2022-11-05T04:26:47.500Z,70.78
2022-11-05T04:29:33.733Z,71.22
2022-11-05T04:32:31.980Z,71.64
2022-11-05T04:35:56.588Z,71.59
2022-11-05T04:38:20.204Z,75.60
2022-11-05T04:40:48.839Z,73.83
2022-11-05T04:43:20.022Z,74.59
2022-11-05T04:45:47.708Z,76.68
2022-11-05T04:48:14.982Z,74.39
2022-11-05T04:50:42.361Z,75.80
2022-11-05T04:54:09.232Z,76.01
2022-11-05T04:56:31.641Z,76.01
2022-11-05T04:59:02.589Z,75.80
2022-11-05T05:01:47.873Z,75.38
2022-11-05T05:04:22.501Z,74.77
2022-11-05T05:06:49.731Z,74.82
2022-11-05T05:09:17.100Z,74.35
2022-11-05T05:11:52.016Z,74.20
2022-11-05T05:14:23.852Z,73.94
2022-11-05T05:17:02.203Z,73.61
2022-11-05T05:19:29.816Z,72.84
2022-11-05T05:21:56.987Z,73.75
2022-11-05T05:24:25.003Z,72.70
2022-11-05T05:26:52.254Z,73.76
2022-11-05T05:29:19.564Z,73.70
2022-11-05T05:31:46.784Z,73.21
2022-11-05T05:34:15.284Z,72.54
2022-11-05T05:36:46.053Z,73.86
2022-11-05T05:39:14.249Z,73.00
2022-11-05T05:41:46.316Z,72.90
2022-11-05T05:44:17.583Z,72.66
2022-11-05T05:46:47.306Z,73.19
2022-11-05T05:49:14.886Z,73.28
2022-11-05T05:51:44.563Z,72.28
2022-11-05T05:54:14.854Z,72.99
2022-11-05T05:56:46.137Z,73.22
2022-11-05T05:59:13.589Z,73.82
2022-11-05T06:01:41.351Z,73.44
2022-11-05T06:04:13.545Z,73.57
2022-11-05T06:07:11.305Z,73.35
2022-11-05T06:09:41.073Z,73.92
2022-11-05T06:12:08.612Z,73.57
2022-11-05T06:14:36.095Z,73.36
2022-11-05T06:17:04.009Z,73.71
2022-11-05T06:19:31.651Z,73.56
2022-11-05T06:21:59.371Z,73.71
2022-11-05T06:24:29.167Z,73.19
2022-11-05T06:26:56.412Z,73.02
2022-11-05T06:29:24.255Z,73.38
2022-11-05T06:31:52.018Z,73.65
2022-11-05T06:34:19.432Z,73.87
2022-11-05T06:36:49.210Z,73.82
2022-11-05T06:39:17.167Z,73.15
2022-11-05T06:42:11.845Z,73.45
2022-11-05T06:44:32.272Z,73.01
2022-11-05T06:47:00.329Z,73.18
2022-11-05T06:49:27.514Z,73.74
2022-11-05T06:51:54.796Z,73.81
2022-11-05T06:54:22.631Z,73.71
2022-11-05T06:56:50.096Z,73.65
2022-11-05T06:59:17.844Z,73.20
2022-11-05T07:01:45.228Z,72.49
2022-11-05T07:04:13.064Z,72.84
2022-11-05T07:06:40.455Z,73.56
2022-11-05T07:09:07.776Z,73.16
2022-11-05T07:11:34.943Z,73.41
2022-11-05T07:14:02.543Z,73.62
2022-11-05T07:16:34.595Z,72.27
2022-11-05T07:19:03.594Z,74.07
2022-11-05T07:21:31.165Z,74.24
2022-11-05T07:23:59.065Z,73.14
2022-11-05T07:26:31.843Z,73.85
2022-11-05T07:29:02.200Z,72.78
2022-11-05T07:31:30.060Z,73.08
2022-11-05T07:34:09.421Z,72.59
2022-11-05T07:36:39.528Z,72.38
2022-11-05T07:42:29.251Z,71.50
2022-11-05T07:44:56.623Z,72.04
2022-11-05T07:47:27.896Z,72.63
2022-11-05T07:49:55.144Z,72.17
2022-11-05T07:52:22.322Z,72.67
2022-11-05T07:54:49.983Z,73.00
2022-11-05T07:57:17.501Z,71.81
2022-11-05T07:59:44.630Z,70.21
2022-11-05T08:02:11.962Z,70.43
2022-11-05T08:04:40.340Z,71.65
2022-11-05T08:07:07.560Z,68.43
2022-11-05T08:09:34.937Z,65.13
2022-11-05T08:12:03.379Z,68.69
2022-11-05T08:14:31.034Z,66.81
2022-11-05T08:16:59.129Z,66.50
2022-11-05T08:19:26.869Z,69.98
2022-11-05T08:21:54.521Z,69.90
2022-11-05T08:24:22.012Z,70.19
2022-11-05T08:26:49.262Z,71.39
2022-11-05T08:29:17.029Z,72.19
2022-11-05T08:31:44.669Z,71.23
2022-11-05T08:34:11.975Z,72.59
2022-11-05T08:36:41.960Z,72.35
2022-11-05T08:39:14.283Z,71.57
2022-11-05T08:41:45.579Z,71.42
2022-11-05T08:44:13.210Z,71.48
2022-11-05T08:46:41.841Z,70.48
2022-11-05T08:49:09.408Z,70.62
2022-11-05T08:51:36.759Z,72.14
2022-11-05T08:54:05.051Z,71.64
2022-11-05T08:56:32.646Z,71.83
2022-11-05T08:59:00.939Z,71.25
2022-11-05T09:01:28.432Z,72.21
2022-11-05T09:03:55.833Z,72.51
2022-11-05T09:06:23.274Z,71.90
2022-11-05T09:08:50.949Z,71.43
2022-11-05T09:11:18.493Z,72.06
2022-11-05T09:13:46.155Z,71.92
2022-11-05T09:16:24.207Z,71.94
2022-11-05T09:18:52.438Z,71.63
2022-11-05T09:21:20.248Z,70.51
2022-11-05T09:23:48.646Z,71.07
2022-11-05T09:26:15.882Z,71.35
2022-11-05T09:28:43.557Z,70.19
2022-11-05T09:31:12.029Z,71.43
2022-11-05T09:33:41.628Z,70.60
2022-11-05T09:36:09.617Z,69.92
2022-11-05T09:38:37.182Z,70.27
2022-11-05T09:41:37.475Z,70.30
2022-11-05T09:44:20.758Z,69.13
2022-11-05T09:46:54.896Z,70.08
2022-11-05T09:49:50.308Z,69.74
2022-11-05T09:52:29.985Z,69.34
2022-11-05T09:54:58.398Z,70.12
2022-11-05T09:57:37.249Z,70.68
2022-11-05T10:00:09.617Z,68.93
2022-11-05T10:02:57.575Z,69.17
2022-11-05T10:05:27.304Z,70.15
2022-11-05T10:08:16.957Z,70.24
2022-11-05T10:10:54.405Z,66.87
2022-11-05T10:13:41.193Z,69.56
2022-11-05T10:16:37.978Z,69.35
2022-11-05T10:19:27.193Z,69.73
2022-11-05T10:22:16.612Z,69.90
2022-11-05T10:24:50.166Z,70.20
2022-11-05T10:27:27.229Z,69.42
2022-11-05T10:29:55.672Z,68.56
2022-11-05T10:32:35.064Z,67.75
2022-11-05T10:35:08.220Z,67.69
2022-11-05T10:37:40.851Z,67.71
2022-11-05T10:40:34.425Z,66.39
2022-11-05T10:43:14.266Z,66.85
2022-11-05T10:46:08.903Z,66.84
2022-11-05T10:48:56.900Z,67.91
2022-11-05T10:51:24.581Z,65.36
2022-11-05T10:54:02.267Z,64.68
2022-11-05T10:56:39.521Z,65.77
2022-11-05T10:59:29.809Z,65.24
2022-11-05T11:02:25.907Z,66.00
2022-11-05T11:04:57.941Z,64.13
2022-11-05T11:07:27.187Z,66.88
2022-11-05T11:09:54.628Z,64.94
2022-11-05T11:12:41.010Z,65.01
2022-11-05T11:15:24.024Z,63.71
2022-11-05T11:17:51.430Z,64.31
2022-11-05T11:20:33.250Z,64.44
2022-11-05T11:23:16.985Z,65.12
2022-11-05T11:26:01.789Z,65.93
2022-11-05T11:28:56.445Z,62.99
2022-11-05T11:31:32.576Z,62.31
2022-11-05T11:34:09.301Z,59.98
2022-11-05T11:36:50.785Z,57.66
2022-11-05T11:39:28.924Z,57.06
2022-11-05T11:42:14.214Z,53.61
2022-11-05T11:44:47.038Z,51.63
2022-11-05T11:47:19.869Z,50.62
2022-11-05T11:49:54.893Z,51.16
2022-11-05T11:52:34.616Z,49.67
2022-11-05T11:55:22.570Z,49.62
2022-11-05T11:58:06.105Z,49.75
2022-11-05T12:00:48.749Z,50.00
2022-11-05T12:03:54.242Z,51.51
2022-11-05T12:06:30.354Z,50.53
2022-11-05T12:09:57.063Z,49.22
2022-11-05T12:13:02.517Z,48.25
2022-11-05T12:16:18.228Z,48.12
2022-11-05T12:18:53.897Z,47.62
2022-11-05T12:21:52.073Z,48.68
2022-11-05T12:25:02.374Z,46.94
2022-11-05T12:28:17.806Z,46.77
2022-11-05T12:31:11.104Z,46.23
2022-11-05T12:34:30.656Z,45.45
2022-11-05T12:37:52.065Z,45.54
2022-11-05T12:40:44.403Z,44.84
2022-11-05T12:43:42.496Z,45.47
2022-11-05T12:46:41.256Z,45.38
2022-11-05T12:50:01.082Z,44.94
2022-11-05T12:53:00.640Z,45.01
2022-11-05T12:55:45.474Z,47.38
2022-11-05T12:58:30.709Z,45.68
2022-11-05T13:01:23.471Z,47.13
2022-11-05T13:04:14.217Z,46.35
2022-11-05T13:06:50.091Z,45.53
2022-11-05T13:09:36.736Z,47.21
2022-11-05T13:12:17.311Z,46.96
2022-11-05T13:14:55.135Z,46.27
2022-11-05T13:17:38.861Z,46.95
2022-11-05T13:20:22.185Z,46.33
2022-11-05T13:23:01.159Z,46.26
2022-11-05T13:25:35.964Z,45.64
2022-11-05T13:28:34.494Z,45.49
2022-11-05T13:31:11.237Z,45.70
2022-11-05T13:33:47.479Z,46.46
2022-11-05T13:36:44.753Z,45.44
2022-11-05T13:39:29.269Z,45.48
2022-11-05T13:42:24.019Z,45.97
2022-11-05T13:45:32.000Z,46.74
2022-11-05T13:48:28.077Z,47.16
2022-11-05T13:51:39.669Z,46.05
2022-11-05T13:54:43.887Z,47.24
2022-11-05T13:57:54.733Z,47.99
2022-11-05T14:00:27.233Z,47.56
2022-11-05T14:03:07.439Z,47.19
2022-11-05T14:05:41.065Z,48.31
2022-11-05T14:08:20.611Z,47.18
2022-11-05T14:11:07.634Z,47.91
2022-11-05T14:13:42.784Z,47.26
2022-11-05T14:16:23.320Z,47.66
2022-11-05T14:19:18.754Z,46.75
2022-11-05T14:21:59.745Z,48.15
2022-11-05T14:24:43.011Z,47.49
2022-11-05T14:27:12.941Z,47.50
2022-11-05T14:29:47.884Z,48.03
2022-11-05T14:32:18.612Z,48.00
2022-11-05T14:35:01.800Z,48.39
2022-11-05T14:37:40.840Z,48.53
2022-11-05T14:40:39.127Z,49.37
2022-11-05T14:43:22.281Z,48.43
2022-11-05T14:46:08.351Z,48.46
2022-11-05T14:48:50.622Z,48.79
2022-11-05T14:51:28.555Z,49.37
2022-11-05T14:54:21.714Z,49.93
2022-11-05T14:56:57.998Z,50.48
2022-11-05T14:59:25.095Z,50.56
2022-11-05T15:02:18.290Z,50.69
2022-11-05T15:04:47.351Z,50.04
2022-11-05T15:07:24.463Z,50.98
2022-11-05T15:10:18.436Z,50.30
2022-11-05T15:12:54.800Z,50.46
2022-11-05T15:15:28.529Z,50.81
2022-11-05T15:18:29.416Z,50.46
2022-11-05T15:21:02.612Z,50.78
2022-11-05T15:23:43.109Z,50.85
2022-11-05T15:26:39.548Z,51.13
2022-11-05T15:29:21.626Z,50.76
2022-11-05T15:31:51.222Z,49.99
2022-11-05T15:34:35.760Z,50.64
2022-11-05T15:37:22.767Z,51.52
2022-11-05T15:39:54.970Z,51.01
2022-11-05T15:42:27.396Z,51.22
2022-11-05T15:44:58.910Z,51.29
2022-11-05T15:47:36.898Z,51.93
2022-11-05T15:50:15.579Z,51.84
2022-11-05T15:52:56.709Z,52.55
2022-11-05T15:55:32.944Z,52.65
2022-11-05T15:58:06.837Z,52.27
2022-11-05T16:00:37.056Z,52.83
2022-11-05T16:03:24.542Z,53.03
2022-11-05T16:05:53.446Z,52.97
2022-11-05T16:08:28.092Z,52.71
2022-11-05T16:10:59.879Z,52.66
2022-11-05T16:13:40.134Z,54.29
2022-11-05T16:16:13.791Z,53.15
2022-11-05T16:18:45.485Z,53.68
2022-11-05T16:21:18.786Z,54.24
2022-11-05T16:24:00.461Z,56.09
2022-11-05T16:29:41.354Z,55.94
2022-11-05T16:32:31.828Z,55.36
2022-11-05T16:35:04.826Z,55.33
2022-11-05T16:37:41.125Z,55.48
2022-11-05T16:40:25.885Z,55.67
2022-11-05T16:42:55.117Z,55.94
2022-11-05T16:45:25.177Z,56.67
2022-11-05T16:47:52.587Z,56.62
2022-11-05T16:50:32.663Z,56.65
2022-11-05T16:52:59.989Z,57.38
2022-11-05T16:55:27.400Z,57.37
2022-11-05T16:57:56.084Z,57.78
2022-11-05T17:00:25.728Z,57.27
2022-11-05T17:03:04.402Z,56.33
2022-11-05T17:05:43.052Z,55.23
2022-11-05T17:08:12.573Z,56.32
2022-11-05T17:10:40.853Z,58.56
2022-11-05T17:13:20.207Z,59.05
2022-11-05T17:15:53.415Z,58.78
2022-11-05T17:18:49.415Z,61.38
2022-11-05T17:21:28.425Z,61.15
2022-11-05T17:23:57.256Z,61.10
2022-11-05T17:26:30.987Z,60.79
2022-11-05T17:29:03.754Z,62.23
2022-11-05T17:31:59.550Z,63.21
2022-11-05T17:35:07.211Z,64.06
2022-11-05T17:38:24.110Z,64.44
2022-11-05T17:44:22.772Z,65.58
2022-11-05T17:47:58.333Z,64.62
2022-11-05T17:50:31.358Z,64.67
2022-11-05T17:53:56.417Z,64.31
2022-11-05T17:56:51.288Z,64.16
2022-11-05T18:07:22.683Z,65.03
2022-11-05T18:09:59.371Z,66.52
2022-11-05T18:12:36.301Z,66.03
2022-11-05T18:15:40.352Z,66.07
2022-11-05T18:18:24.296Z,66.97
2022-11-05T18:24:09.678Z,67.17
2022-11-05T18:27:06.995Z,67.30
2022-11-05T18:29:47.797Z,66.55
2022-11-05T18:32:40.525Z,66.10
2022-11-05T18:35:52.645Z,65.89
2022-11-05T18:38:22.904Z,67.41
2022-11-05T18:40:53.702Z,66.63
2022-11-05T18:43:22.016Z,66.62
2022-11-05T18:45:58.956Z,67.98
2022-11-05T18:48:27.852Z,67.98
2022-11-05T18:51:19.302Z,67.84
2022-11-05T18:53:49.471Z,68.07
2022-11-05T18:56:25.039Z,67.12
2022-11-05T18:59:29.903Z,67.66
2022-11-05T19:01:57.605Z,67.87
2022-11-05T19:05:14.466Z,68.00
2022-11-05T19:07:49.219Z,66.71
2022-11-05T19:10:17.695Z,66.55
2022-11-05T19:12:49.504Z,67.32
2022-11-05T19:15:18.862Z,66.56
2022-11-05T19:17:47.162Z,66.88
2022-11-05T19:20:16.078Z,67.61
2022-11-05T19:22:46.967Z,67.70
2022-11-05T19:25:33.213Z,67.52
2022-11-05T19:28:05.018Z,67.63
2022-11-05T19:30:40.287Z,68.93
2022-11-05T19:33:10.957Z,67.58
2022-11-05T19:35:54.956Z,67.72
2022-11-05T19:38:28.802Z,68.46
2022-11-05T19:41:07.073Z,68.77
2022-11-05T19:44:02.078Z,69.04
2022-11-05T19:46:40.209Z,68.05
2022-11-05T19:49:21.155Z,66.85
2022-11-05T19:52:01.249Z,67.39
2022-11-05T19:54:34.361Z,68.55
2022-11-05T19:57:03.218Z,68.04
2022-11-05T19:59:35.767Z,68.03
2022-11-05T20:02:13.303Z,68.07
2022-11-05T20:04:50.422Z,67.71
2022-11-05T20:07:21.579Z,68.39
2022-11-05T20:09:50.299Z,67.87
2022-11-05T20:12:22.153Z,67.74
2022-11-05T20:14:50.528Z,68.21
2022-11-05T20:17:23.819Z,68.64
2022-11-05T20:19:52.296Z,69.65
2022-11-05T20:22:21.095Z,70.78
2022-11-05T20:24:49.407Z,71.43
2022-11-05T20:27:17.868Z,70.83
2022-11-05T20:29:51.108Z,69.77
2022-11-05T20:32:19.773Z,69.99
2022-11-05T20:34:59.892Z,69.26
2022-11-05T20:37:36.715Z,68.40
2022-11-05T20:40:10.109Z,67.94
2022-11-05T20:42:39.069Z,67.92
2022-11-05T20:45:17.264Z,67.53
2022-11-05T20:47:57.704Z,67.73
2022-11-05T20:50:30.443Z,67.62
2022-11-05T20:53:02.043Z,67.96
2022-11-05T20:55:29.981Z,67.94
2022-11-05T20:57:57.868Z,68.23
2022-11-05T21:02:12.883Z,69.05
2022-11-05T21:03:53.938Z,68.99
2022-11-05T21:06:23.433Z,69.09
2022-11-05T21:08:58.176Z,69.80
2022-11-05T21:11:28.011Z,69.74
2022-11-05T21:14:33.321Z,68.88
2022-11-05T21:17:52.227Z,68.81
2022-11-05T21:20:49.180Z,68.24
2022-11-05T21:23:50.535Z,66.85
2022-11-05T21:27:02.643Z,67.06
2022-11-05T21:29:53.954Z,65.64
2022-11-05T21:33:10.570Z,65.64
2022-11-05T21:36:19.534Z,66.75
2022-11-05T21:39:14.504Z,67.50
2022-11-05T21:42:25.474Z,66.92
2022-11-05T21:45:18.825Z,68.44
2022-11-05T21:47:46.573Z,67.67
2022-11-05T21:50:18.271Z,68.29
2022-11-05T21:53:20.834Z,67.41
2022-11-05T21:56:07.207Z,68.21
2022-11-05T21:58:56.247Z,69.52
2022-11-05T22:01:23.580Z,68.98
2022-11-05T22:03:50.899Z,68.41
2022-11-05T22:06:20.784Z,69.19
2022-11-05T22:08:47.929Z,68.59
2022-11-05T22:11:15.217Z,68.51
2022-11-05T22:13:42.486Z,67.65
2022-11-05T22:16:35.675Z,68.32
2022-11-05T22:19:03.588Z,68.95
2022-11-05T22:21:30.777Z,68.80
2022-11-05T22:23:58.048Z,69.45
2022-11-05T22:26:25.383Z,68.80
2022-11-05T22:28:56.470Z,68.48
2022-11-05T22:31:24.729Z,67.66
2022-11-05T22:33:53.232Z,67.49
2022-11-05T22:36:20.591Z,66.75
2022-11-05T22:38:47.825Z,67.08
2022-11-05T22:41:20.432Z,67.45
2022-11-05T22:43:48.910Z,67.94
2022-11-05T22:46:26.338Z,68.04
2022-11-05T22:48:54.514Z,68.41
2022-11-05T22:51:28.465Z,68.47
2022-11-05T22:53:56.739Z,68.67
2022-11-05T22:56:28.751Z,68.17
2022-11-05T22:58:56.683Z,68.22
2022-11-05T23:01:25.004Z,68.61
2022-11-05T23:03:56.956Z,68.27
2022-11-05T23:06:51.187Z,69.09
2022-11-05T23:09:45.683Z,68.24
2022-11-05T23:12:29.112Z,66.28
2022-11-05T23:14:59.962Z,67.91
2022-11-05T23:17:49.010Z,68.24
2022-11-05T23:20:42.226Z,68.97
2022-11-05T23:23:31.615Z,68.45
2022-11-05T23:26:24.787Z,67.86
2022-11-05T23:28:51.998Z,66.93
2022-11-05T23:31:38.024Z,66.63
2022-11-05T23:34:05.153Z,67.64
2022-11-05T23:36:51.191Z,66.24
2022-11-05T23:39:18.442Z,65.80
2022-11-05T23:42:04.539Z,67.10
2022-11-05T23:44:50.581Z,68.96
2022-11-05T23:47:36.535Z,68.31
2022-11-05T23:50:04.266Z,67.97
2022-11-05T23:52:31.992Z,68.26
2022-11-05T23:54:59.911Z,68.64
2022-11-05T23:57:27.423Z,68.61
2022-11-05T23:59:54.684Z,67.58
